createdAt,value
2018-11-03T00:05:02.496Z,14.43
2018-11-03T00:10:07.081Z,12.80
2018-11-03T00:15:40.076Z,13.77
2018-11-03T00:20:43.866Z,19.03
2018-11-03T00:25:48.541Z,19.10
2018-11-03T00:31:08.805Z,17.97
2018-11-03T00:36:12.944Z,14.27
2018-11-03T00:41:17.170Z,19.27
2018-11-03T00:46:28.312Z,18.37
2018-11-03T00:51:32.155Z,17.73
2018-11-03T00:56:37.378Z,13.70
2018-11-03T01:01:41.133Z,14.27
2018-11-03T01:06:44.786Z,18.47
2018-11-03T01:11:49.566Z,12.77
2018-11-03T01:16:53.144Z,16.47
2018-11-03T01:21:56.959Z,13.20
2018-11-03T01:27:00.724Z,14.10
2018-11-03T01:32:04.720Z,12.53
2018-11-03T01:37:08.299Z,12.70
2018-11-03T01:42:12.098Z,11.23
2018-11-03T01:47:15.797Z,12.20
2018-11-03T01:52:19.463Z,12.63
2018-11-03T01:57:23.397Z,14.10
2018-11-03T02:02:27.071Z,14.53
2018-11-03T02:07:30.757Z,12.23
2018-11-03T02:12:35.186Z,13.20
2018-11-03T02:17:39.371Z,16.30
2018-11-03T02:22:42.961Z,14.20
2018-11-03T02:27:46.653Z,13.17
2018-11-03T02:32:50.301Z,13.33
2018-11-03T02:37:54.143Z,12.13
2018-11-03T02:42:57.959Z,10.97
2018-11-03T02:48:01.507Z,12.60
2018-11-03T02:53:06.328Z,14.33
2018-11-03T02:58:09.938Z,13.87
2018-11-03T03:03:13.639Z,13.83
2018-11-03T03:08:17.267Z,11.80
2018-11-03T03:13:20.850Z,11.60
2018-11-03T03:18:24.502Z,17.47
2018-11-03T03:23:28.167Z,16.50
2018-11-03T03:28:32.871Z,11.87
2018-11-03T03:33:36.573Z,12.77
2018-11-03T03:38:40.150Z,12.63
2018-11-03T03:43:43.931Z,14.07
2018-11-03T03:48:47.607Z,19.73
2018-11-03T03:53:51.179Z,24.57
2018-11-03T03:58:54.911Z,16.33
2018-11-03T04:03:58.446Z,16.57
2018-11-03T04:09:02.014Z,21.73
2018-11-03T04:14:05.706Z,27.53
2018-11-03T04:19:09.524Z,20.23
2018-11-03T04:24:13.082Z,22.97
2018-11-03T04:29:17.433Z,21.87
2018-11-03T04:34:21.006Z,19.03
2018-11-03T04:39:24.647Z,16.50
2018-11-03T04:44:28.270Z,19.63
2018-11-03T04:49:34.141Z,19.67
2018-11-03T04:54:37.705Z,12.73
2018-11-03T04:59:42.763Z,13.27
2018-11-03T05:04:46.579Z,20.93
2018-11-03T05:09:50.205Z,12.40
2018-11-03T05:14:54.990Z,16.87
2018-11-03T05:19:58.654Z,15.37
2018-11-03T05:25:02.281Z,18.03
2018-11-03T05:30:06.312Z,17.53
2018-11-03T05:35:09.884Z,19.93
2018-11-03T05:40:13.663Z,14.80
2018-11-03T05:45:17.555Z,28.87
2018-11-03T05:50:21.447Z,49.93
2018-11-03T05:55:25.066Z,16.10
2018-11-03T06:00:29.603Z,16.77
2018-11-03T06:05:33.290Z,16.73
2018-11-03T06:10:39.433Z,12.47
2018-11-03T06:15:43.846Z,15.63
2018-11-03T06:20:47.880Z,15.87
2018-11-03T06:25:51.505Z,28.30
2018-11-03T06:30:55.047Z,18.93
2018-11-03T06:35:58.884Z,19.00
2018-11-03T06:41:02.503Z,28.47
2018-11-03T06:46:06.754Z,26.50
2018-11-03T06:51:12.595Z,56.37
2018-11-03T06:56:16.443Z,33.47
2018-11-03T07:01:19.990Z,22.13
2018-11-03T07:06:23.801Z,16.37
2018-11-03T07:11:27.959Z,15.23
2018-11-03T07:16:33.925Z,16.97
2018-11-03T07:21:37.707Z,15.80
2018-11-03T07:26:41.387Z,17.00
2018-11-03T07:31:46.125Z,17.43
2018-11-03T07:36:50.764Z,18.77
2018-11-03T07:41:57.510Z,50.23
2018-11-03T07:47:01.432Z,20.77
2018-11-03T07:52:05.343Z,29.97
2018-11-03T07:57:09.185Z,23.37
2018-11-03T08:02:14.336Z,48.47
2018-11-03T08:07:21.652Z,23.67
2018-11-03T08:12:25.295Z,25.33
2018-11-03T08:17:34.030Z,21.60
2018-11-03T08:22:37.663Z,32.57
2018-11-03T08:27:41.391Z,23.83
2018-11-03T08:32:51.628Z,21.73
2018-11-03T08:37:55.278Z,39.40
2018-11-03T08:43:02.209Z,29.73
2018-11-03T08:48:06.706Z,42.57
2018-11-03T08:53:10.252Z,15.17
2018-11-03T08:58:16.171Z,16.63
2018-11-03T09:03:21.012Z,12.00
2018-11-03T09:08:24.554Z,14.40
2018-11-03T09:13:28.126Z,11.40
2018-11-03T09:18:31.659Z,13.17
2018-11-03T09:23:35.346Z,11.73
2018-11-03T09:28:41.128Z,10.67
2018-11-03T09:33:44.758Z,11.83
2018-11-03T09:38:48.483Z,11.73
2018-11-03T09:43:52.129Z,10.67
2018-11-03T09:48:55.933Z,11.37
2018-11-03T09:53:59.501Z,11.00
2018-11-03T09:59:03.430Z,11.17
2018-11-03T10:04:09.741Z,9.53
2018-11-03T10:09:15.459Z,10.70
2018-11-03T10:14:19.287Z,12.60
2018-11-03T10:19:26.497Z,13.83
2018-11-03T10:24:32.714Z,12.60
2018-11-03T10:29:43.250Z,10.27
2018-11-03T10:34:47.066Z,13.10
2018-11-03T10:39:52.853Z,14.77
2018-11-03T10:44:56.844Z,10.90
2018-11-03T10:50:00.623Z,9.27
2018-11-03T10:55:04.347Z,12.43
2018-11-03T11:00:19.091Z,17.80
2018-11-03T11:05:27.962Z,22.33
2018-11-03T11:12:41.200Z,16.50
2018-11-03T11:17:46.160Z,15.13
2018-11-03T11:22:49.809Z,11.80
2018-11-03T11:27:53.442Z,16.37
2018-11-03T11:32:57.221Z,15.50
2018-11-03T11:38:00.990Z,14.33
2018-11-03T11:43:04.785Z,17.13
2018-11-03T11:48:08.810Z,14.23
2018-11-03T11:53:12.566Z,12.47
2018-11-03T11:58:16.253Z,13.33
2018-11-03T12:03:20.129Z,9.17
2018-11-03T12:08:23.683Z,11.53
2018-11-03T12:13:27.247Z,11.67
2018-11-03T12:18:34.314Z,14.70
2018-11-03T12:23:39.897Z,10.20
2018-11-03T12:28:43.495Z,10.00
2018-11-03T12:33:47.239Z,9.40
2018-11-03T12:38:50.936Z,10.03
2018-11-03T12:43:55.611Z,11.43
2018-11-03T12:48:59.170Z,10.00
2018-11-03T12:54:02.915Z,8.10
2018-11-03T12:59:07.605Z,7.97
2018-11-03T13:04:11.210Z,11.17
2018-11-03T13:09:14.712Z,8.40
2018-11-03T13:14:18.401Z,7.73
2018-11-03T13:19:21.932Z,10.83
2018-11-03T13:24:25.478Z,8.63
2018-11-03T13:29:29.046Z,11.57
2018-11-03T13:34:32.612Z,12.07
2018-11-03T13:39:36.278Z,12.27
2018-11-03T13:44:39.844Z,23.70
2018-11-03T13:49:43.507Z,11.60
2018-11-03T13:54:47.278Z,10.97
2018-11-03T13:59:50.944Z,16.03
2018-11-03T14:04:54.585Z,13.53
2018-11-03T14:09:58.246Z,15.07
2018-11-03T14:15:01.819Z,13.73
2018-11-03T14:20:07.523Z,12.20
2018-11-03T14:25:12.874Z,9.73
2018-11-03T14:30:16.506Z,9.80
2018-11-03T14:35:20.066Z,10.70
2018-11-03T14:40:24.676Z,13.70
2018-11-03T14:45:28.522Z,7.70
2018-11-03T14:50:33.194Z,8.23
2018-11-03T14:55:36.842Z,11.17
2018-11-03T15:00:40.801Z,10.90
2018-11-03T15:05:45.467Z,13.43
2018-11-03T15:10:49.042Z,9.70
2018-11-03T15:15:52.590Z,8.87
2018-11-03T15:20:56.174Z,8.97
2018-11-03T15:25:59.866Z,11.47
2018-11-03T15:31:03.412Z,10.17
2018-11-03T15:36:07.043Z,9.20
2018-11-03T15:41:10.744Z,17.43
2018-11-03T15:46:14.326Z,17.03
2018-11-03T15:51:17.856Z,14.97
2018-11-03T15:56:21.613Z,12.47
2018-11-03T16:01:25.494Z,12.63
2018-11-03T16:06:29.063Z,10.90
2018-11-03T16:11:32.726Z,13.03
2018-11-03T16:16:36.496Z,13.10
2018-11-03T16:21:40.166Z,12.07
2018-11-03T16:26:43.791Z,14.67
2018-11-03T16:31:47.365Z,14.33
2018-11-03T16:36:51.037Z,14.60
2018-11-03T16:41:54.688Z,18.87
2018-11-03T16:46:59.399Z,21.20
2018-11-03T16:52:03.745Z,16.60
2018-11-03T16:57:11.243Z,13.57
2018-11-03T17:02:14.950Z,18.90
2018-11-03T17:07:18.585Z,21.27
2018-11-03T17:12:22.227Z,22.87
2018-11-03T17:17:25.793Z,21.27
2018-11-03T17:22:29.554Z,21.43
2018-11-03T17:27:33.350Z,22.60
2018-11-03T17:32:37.192Z,20.83
2018-11-03T17:37:40.931Z,20.73
2018-11-03T17:42:44.601Z,23.10
2018-11-03T17:47:48.406Z,17.60
2018-11-03T17:52:52.034Z,23.10
2018-11-03T17:57:55.724Z,16.70
2018-11-03T18:02:59.291Z,20.63
2018-11-03T18:08:02.979Z,16.67
2018-11-03T18:13:06.551Z,16.70
2018-11-03T18:18:13.346Z,23.17
2018-11-03T18:23:19.477Z,22.50
2018-11-03T18:28:23.088Z,26.87
2018-11-03T18:33:26.904Z,24.20
2018-11-03T18:38:30.854Z,26.73
2018-11-03T18:43:34.674Z,26.70
2018-11-03T18:48:41.449Z,30.60
2018-11-03T18:53:45.437Z,49.53
2018-11-03T18:58:51.138Z,82.57
2018-11-03T19:03:54.995Z,45.57
2018-11-03T19:08:59.695Z,58.50
2018-11-03T19:19:54.171Z,39.07
2018-11-03T19:24:58.275Z,39.20
2018-11-03T19:30:09.941Z,43.00
2018-11-03T19:35:13.805Z,38.70
2018-11-03T19:40:22.598Z,30.53
2018-11-03T19:45:28.136Z,26.23
2018-11-03T19:50:31.906Z,21.57
2018-11-03T19:55:36.871Z,26.60
2018-11-03T20:00:43.996Z,27.97
2018-11-03T20:05:48.566Z,31.80
2018-11-03T20:10:52.460Z,20.53
2018-11-03T20:15:56.135Z,22.93
2018-11-03T20:21:01.421Z,20.53
2018-11-03T20:26:07.086Z,30.40
2018-11-03T20:31:11.623Z,26.57
2018-11-03T20:36:21.503Z,17.57
2018-11-03T20:41:25.227Z,17.50
2018-11-03T20:46:29.054Z,18.43
2018-11-03T20:51:32.769Z,23.00
2018-11-03T20:56:38.860Z,28.33
2018-11-03T21:01:44.594Z,27.57
2018-11-03T21:06:51.893Z,29.03
2018-11-03T21:11:56.701Z,31.27
2018-11-03T21:17:00.472Z,27.20
2018-11-03T21:22:06.923Z,27.43
2018-11-03T21:27:11.699Z,29.20
2018-11-03T21:32:15.403Z,22.60
2018-11-03T21:37:21.606Z,20.77
2018-11-03T21:42:26.363Z,23.53
2018-11-03T21:47:30.161Z,24.87
2018-11-03T21:52:33.845Z,22.93
2018-11-03T21:57:41.115Z,22.90
2018-11-03T22:02:45.118Z,31.27
2018-11-03T22:07:48.822Z,34.83
2018-11-03T22:12:52.458Z,44.43
2018-11-03T22:17:56.298Z,35.87
2018-11-03T22:22:59.967Z,24.73
2018-11-03T22:28:05.000Z,29.07
2018-11-03T22:33:08.652Z,29.10
2018-11-03T22:38:12.317Z,26.50
2018-11-03T22:43:16.148Z,31.47
2018-11-03T22:48:19.918Z,34.07
2018-11-03T22:53:26.050Z,26.97
2018-11-03T22:58:29.607Z,28.20
2018-11-03T23:03:33.315Z,39.03
2018-11-03T23:08:36.990Z,28.87
2018-11-03T23:13:41.969Z,29.93
2018-11-03T23:18:45.552Z,28.90
2018-11-03T23:23:50.299Z,25.17
2018-11-03T23:28:56.648Z,24.43
2018-11-03T23:34:00.439Z,24.80
2018-11-03T23:39:05.443Z,23.60
2018-11-03T23:44:12.735Z,26.03
2018-11-03T23:49:16.286Z,19.37
2018-11-03T23:54:20.820Z,19.77
2018-11-03T23:59:26.890Z,24.47
